Time;durP1;ratioP1;P1;durP2;ratioP2;P2;SDS_P1;SDS_P2;PMS_P1;PMS_P2;Temp;Humidity;BMP_temperature;BMP_pressure;BME280_temperature;BME280_humidity;BME280_pressure;Samples;Min_cycle;Max_cycle;Signal;HPM_P1;HPM_P2
2022/12/12 00:01:46;;;;;;;14.77;9.53;;;;;;;;;;5059002;28;20458;-59
2022/12/12 00:04:12;;;;;;;12.13;8.93;;;;;;;;;;5046085;28;20432;-59
2022/12/12 00:06:38;;;;;;;12.33;8.97;;;;;;;;;;5046523;28;20836;-59
2022/12/12 00:09:04;;;;;;;13.77;9.67;;;;;;;;;;5065945;28;20411;-60
2022/12/12 00:11:31;;;;;;;19.60;9.97;;;;;;;;;;5049447;28;20459;-59
2022/12/12 00:13:57;;;;;;;16.70;10.13;;;;;;;;;;5046402;28;20427;-60
2022/12/12 00:16:23;;;;;;;15.30;9.97;;;;;;;;;;5039362;28;20823;-59
2022/12/12 00:18:49;;;;;;;12.13;8.77;;;;;;;;;;5050775;28;21113;-59
2022/12/12 00:21:17;;;;;;;12.47;9.33;;;;;;;;;;5047699;28;21102;-59
2022/12/12 00:23:43;;;;;;;12.83;8.40;;;;;;;;;;5043560;28;20482;-58
2022/12/12 00:26:15;;;;;;;15.57;9.07;;;;;;;;;;5032565;28;20445;-61
2022/12/12 00:28:41;;;;;;;11.83;8.60;;;;;;;;;;5045765;28;20432;-61
2022/12/12 00:31:07;;;;;;;16.20;9.57;;;;;;;;;;5046325;28;20454;-59
2022/12/12 00:33:39;;;;;;;15.80;8.43;;;;;;;;;;5045677;28;20474;-59
2022/12/12 00:36:06;;;;;;;14.27;9.40;;;;;;;;;;5046028;28;20952;-59
2022/12/12 00:38:32;;;;;;;14.43;8.87;;;;;;;;;;5028700;28;20502;-59
2022/12/12 00:40:58;;;;;;;15.57;10.43;;;;;;;;;;5045898;28;20495;-59
2022/12/12 00:43:25;;;;;;;15.03;9.20;;;;;;;;;;5038687;28;20542;-59
2022/12/12 00:45:51;;;;;;;12.93;8.17;;;;;;;;;;5045216;28;20956;-60
2022/12/12 00:48:17;;;;;;;14.47;9.13;;;;;;;;;;5045492;28;20427;-59
2022/12/12 00:50:43;;;;;;;13.90;9.20;;;;;;;;;;5046742;28;20465;-59
2022/12/12 00:53:10;;;;;;;13.40;8.40;;;;;;;;;;5047323;27;20905;-59
2022/12/12 00:55:36;;;;;;;14.33;8.47;;;;;;;;;;5058614;28;20628;-59
2022/12/12 00:58:02;;;;;;;10.93;8.90;;;;;;;;;;5053105;28;20989;-59
2022/12/12 01:00:28;;;;;;;15.23;9.37;;;;;;;;;;5046023;28;20443;-59
2022/12/12 01:02:57;;;;;;;13.93;9.03;;;;;;;;;;5046230;28;20941;-59
2022/12/12 01:05:24;;;;;;;13.83;8.80;;;;;;;;;;5059501;28;20454;-59
2022/12/12 01:07:50;;;;;;;17.03;8.93;;;;;;;;;;5044762;28;20505;-59
2022/12/12 01:10:16;;;;;;;18.03;9.83;;;;;;;;;;5051933;28;20862;-59
2022/12/12 01:12:42;;;;;;;15.70;9.03;;;;;;;;;;5049896;28;20808;-60
2022/12/12 01:15:09;;;;;;;12.73;8.10;;;;;;;;;;5056098;28;20827;-59
2022/12/12 01:17:39;;;;;;;14.87;8.97;;;;;;;;;;5055087;28;20489;-60
2022/12/12 01:20:06;;;;;;;14.70;9.77;;;;;;;;;;5046447;28;20945;-60
2022/12/12 01:22:32;;;;;;;14.20;8.17;;;;;;;;;;5058947;28;20945;-60
2022/12/12 01:24:59;;;;;;;14.13;9.07;;;;;;;;;;5047431;28;20431;-60
2022/12/12 01:27:25;;;;;;;15.97;9.77;;;;;;;;;;5061047;28;20945;-59
2022/12/12 01:29:51;;;;;;;14.07;9.27;;;;;;;;;;5034648;28;20427;-59
2022/12/12 01:32:17;;;;;;;14.47;10.00;;;;;;;;;;5049739;28;20851;-60
2022/12/12 01:34:43;;;;;;;12.47;8.67;;;;;;;;;;5038739;28;20893;-59
2022/12/12 01:37:09;;;;;;;12.77;7.83;;;;;;;;;;5050417;28;20423;-59
2022/12/12 01:39:36;;;;;;;14.97;9.17;;;;;;;;;;5053266;28;20885;-59
2022/12/12 01:42:02;;;;;;;13.10;9.17;;;;;;;;;;5043738;28;20505;-59
2022/12/12 01:44:43;;;;;;;15.57;9.87;;;;;;;;;;5043913;28;20687;-60
2022/12/12 01:47:11;;;;;;;16.13;8.87;;;;;;;;;;5028514;28;20435;-59
2022/12/12 01:49:37;;;;;;;14.87;9.20;;;;;;;;;;5054715;28;21003;-60
2022/12/12 01:52:05;;;;;;;14.10;9.03;;;;;;;;;;5065107;28;20795;-60
2022/12/12 01:54:37;;;;;;;13.10;9.10;;;;;;;;;;5034296;28;20470;-59
2022/12/12 01:57:05;;;;;;;14.33;9.70;;;;;;;;;;5023378;28;20430;-59
2022/12/12 01:59:33;;;;;;;14.80;9.03;;;;;;;;;;5060336;28;20413;-59
2022/12/12 02:01:59;;;;;;;14.83;8.13;;;;;;;;;;5061628;28;20411;-60
2022/12/12 02:04:26;;;;;;;16.13;10.30;;;;;;;;;;5056532;28;20933;-58
2022/12/12 02:06:54;;;;;;;14.03;8.97;;;;;;;;;;5047557;28;20506;-60
2022/12/12 02:09:20;;;;;;;12.73;9.00;;;;;;;;;;5026858;28;20439;-59
2022/12/12 02:11:48;;;;;;;15.43;9.63;;;;;;;;;;5045156;28;20459;-60
2022/12/12 02:14:18;;;;;;;15.77;9.50;;;;;;;;;;5043048;28;20435;-59
2022/12/12 02:16:44;;;;;;;14.83;8.47;;;;;;;;;;5044156;28;20431;-60
2022/12/12 02:19:33;;;;;;;12.63;8.77;;;;;;;;;;5046565;28;20435;-60
2022/12/12 02:22:02;;;;;;;14.50;9.50;;;;;;;;;;4999021;28;20196;-60
2022/12/12 02:24:47;;;;;;;13.47;9.37;;;;;;;;;;5040674;28;20429;-59
2022/12/12 02:27:16;;;;;;;12.77;8.67;;;;;;;;;;5037252;28;20427;-59
2022/12/12 02:30:01;;;;;;;15.63;8.93;;;;;;;;;;5043865;28;20430;-60
2022/12/12 02:33:06;;;;;;;15.93;9.50;;;;;;;;;;5046861;28;20524;-59
2022/12/12 02:35:32;;;;;;;13.43;8.80;;;;;;;;;;4967197;28;20427;-60
2022/12/12 02:37:58;;;;;;;14.07;8.47;;;;;;;;;;4964982;28;20522;-59
2022/12/12 02:40:33;;;;;;;14.47;7.50;;;;;;;;;;5005655;28;20477;-59
2022/12/12 02:43:11;;;;;;;13.70;8.33;;;;;;;;;;5047035;28;20195;-60
2022/12/12 02:45:42;;;;;;;14.00;8.80;;;;;;;;;;5048037;28;20397;-59
2022/12/12 02:48:30;;;;;;;14.20;8.60;;;;;;;;;;5044726;28;20435;-59
2022/12/12 02:50:58;;;;;;;19.00;10.43;;;;;;;;;;5047927;28;20506;-60
2022/12/12 02:53:24;;;;;;;15.90;8.77;;;;;;;;;;5065078;28;20412;-59
2022/12/12 02:56:00;;;;;;;13.77;8.53;;;;;;;;;;5047507;28;20395;-59
2022/12/12 02:58:26;;;;;;;15.33;8.70;;;;;;;;;;5045855;28;20411;-59
2022/12/12 03:01:09;;;;;;;17.60;8.73;;;;;;;;;;5047444;28;20442;-59
2022/12/12 03:09:45;;;;;;;17.77;9.87;;;;;;;;;;5056022;28;20496;-59
2022/12/12 03:12:17;;;;;;;13.60;9.27;;;;;;;;;;5048887;28;20964;-59
2022/12/12 03:14:46;;;;;;;15.80;8.40;;;;;;;;;;5047160;28;20431;-59
2022/12/12 03:17:12;;;;;;;12.73;8.03;;;;;;;;;;5049330;28;20423;-60
2022/12/12 03:19:38;;;;;;;12.67;8.40;;;;;;;;;;5048394;28;20432;-59
2022/12/12 03:22:23;;;;;;;13.53;9.63;;;;;;;;;;5055442;28;20211;-60
2022/12/12 03:24:59;;;;;;;14.07;8.33;;;;;;;;;;5039614;28;20217;-59
2022/12/12 03:27:33;;;;;;;15.40;8.33;;;;;;;;;;5057194;28;20431;-60
2022/12/12 03:30:04;;;;;;;15.87;9.40;;;;;;;;;;5047737;28;20404;-59
2022/12/12 03:32:33;;;;;;;12.47;7.80;;;;;;;;;;5048301;28;20463;-60
2022/12/12 03:35:02;;;;;;;17.77;9.00;;;;;;;;;;5045716;28;20450;-59
2022/12/12 03:37:33;;;;;;;13.53;8.60;;;;;;;;;;5047034;28;20526;-59
2022/12/12 03:40:18;;;;;;;13.50;8.90;;;;;;;;;;5028930;28;21158;-59
2022/12/12 03:43:00;;;;;;;14.57;8.63;;;;;;;;;;5043126;28;20869;-60
2022/12/12 03:45:35;;;;;;;14.40;8.60;;;;;;;;;;5055760;28;20978;-60
2022/12/12 03:48:07;;;;;;;12.50;8.80;;;;;;;;;;5047678;28;20809;-59
2022/12/12 03:50:36;;;;;;;13.20;7.70;;;;;;;;;;5047454;28;20388;-59
2022/12/12 03:53:10;;;;;;;16.80;8.97;;;;;;;;;;5047494;28;20460;-59
2022/12/12 03:55:40;;;;;;;13.57;8.10;;;;;;;;;;5048418;28;20528;-60
2022/12/12 03:58:13;;;;;;;12.93;8.00;;;;;;;;;;5036488;28;20423;-60
2022/12/12 04:00:41;;;;;;;16.47;9.27;;;;;;;;;;5035184;28;20884;-59
2022/12/12 04:03:29;;;;;;;10.70;8.83;;;;;;;;;;5025181;28;20729;-60
2022/12/12 04:14:40;;;;;;;14.43;9.13;;;;;;;;;;5023876;28;21041;-60
2022/12/12 04:17:08;;;;;;;12.33;9.63;;;;;;;;;;5027681;28;20982;-60
2022/12/12 04:25:31;;;;;;;11.67;8.13;;;;;;;;;;5026929;28;20467;-59
2022/12/12 04:28:00;;;;;;;12.53;8.40;;;;;;;;;;5011124;28;20420;-59
2022/12/12 04:30:28;;;;;;;14.50;8.97;;;;;;;;;;5010380;28;20454;-60
2022/12/12 04:33:01;;;;;;;13.33;9.03;;;;;;;;;;5024195;28;20535;-60
2022/12/12 04:35:32;;;;;;;14.63;9.57;;;;;;;;;;5027442;28;20440;-60
2022/12/12 04:38:00;;;;;;;10.67;6.87;;;;;;;;;;5036352;28;21001;-60
2022/12/12 04:40:32;;;;;;;15.00;8.87;;;;;;;;;;5026089;28;20444;-60
2022/12/12 04:43:00;;;;;;;14.43;8.93;;;;;;;;;;5039847;28;20427;-60
2022/12/12 04:45:28;;;;;;;11.60;7.63;;;;;;;;;;5006993;28;20431;-60
2022/12/12 04:47:55;;;;;;;13.47;8.27;;;;;;;;;;5020232;28;20521;-60
2022/12/12 04:50:23;;;;;;;14.63;7.70;;;;;;;;;;5038341;28;20467;-60
2022/12/12 04:52:51;;;;;;;10.53;8.10;;;;;;;;;;5032519;28;20487;-60
2022/12/12 04:55:21;;;;;;;13.20;8.13;;;;;;;;;;5047265;28;20602;-59
2022/12/12 04:57:49;;;;;;;11.07;7.40;;;;;;;;;;5045262;28;20824;-60
2022/12/12 05:00:15;;;;;;;13.33;8.17;;;;;;;;;;5027194;28;20458;-60
2022/12/12 05:02:58;;;;;;;10.73;7.57;;;;;;;;;;5045214;28;20495;-60
2022/12/12 05:05:34;;;;;;;14.07;8.63;;;;;;;;;;5040438;28;20415;-60
2022/12/12 05:08:05;;;;;;;10.93;7.87;;;;;;;;;;5046039;28;20454;-60
2022/12/12 05:10:31;;;;;;;13.00;8.23;;;;;;;;;;5044373;28;20428;-60
2022/12/12 05:12:58;;;;;;;12.97;8.20;;;;;;;;;;5044104;28;21360;-60
2022/12/12 05:15:24;;;;;;;15.60;8.47;;;;;;;;;;5046111;28;20592;-60
2022/12/12 05:18:01;;;;;;;13.30;7.47;;;;;;;;;;5045007;28;20973;-59
2022/12/12 05:20:27;;;;;;;14.77;8.47;;;;;;;;;;5027162;28;20618;-59
2022/12/12 05:22:53;;;;;;;14.13;9.20;;;;;;;;;;5043851;28;20522;-59
2022/12/12 05:25:19;;;;;;;11.60;7.40;;;;;;;;;;5056468;28;20889;-59
2022/12/12 05:27:45;;;;;;;12.33;7.53;;;;;;;;;;5057131;28;20980;-59
2022/12/12 05:30:11;;;;;;;12.80;7.30;;;;;;;;;;5044701;28;20882;-60
2022/12/12 05:32:37;;;;;;;12.80;7.37;;;;;;;;;;5044666;28;20463;-58
2022/12/12 05:35:04;;;;;;;11.87;8.47;;;;;;;;;;5044768;28;20423;-59
2022/12/12 05:37:30;;;;;;;12.40;8.43;;;;;;;;;;5044988;28;20459;-59
2022/12/12 05:39:56;;;;;;;10.63;7.63;;;;;;;;;;5040931;28;20435;-60
2022/12/12 05:42:22;;;;;;;12.43;7.47;;;;;;;;;;5052981;28;20879;-58
2022/12/12 05:44:48;;;;;;;10.83;8.00;;;;;;;;;;5038595;28;20435;-59
2022/12/12 05:47:14;;;;;;;12.33;7.87;;;;;;;;;;5043148;28;20914;-59
2022/12/12 05:49:48;;;;;;;13.40;7.80;;;;;;;;;;5036625;28;20452;-59
2022/12/12 05:52:15;;;;;;;12.40;8.03;;;;;;;;;;5043404;28;20463;-58
2022/12/12 05:54:47;;;;;;;13.33;9.10;;;;;;;;;;5038593;28;20483;-62
2022/12/12 05:57:20;;;;;;;8.93;6.57;;;;;;;;;;5051925;28;20424;-59
2022/12/12 05:59:46;;;;;;;13.13;7.97;;;;;;;;;;5038148;28;20814;-58
2022/12/12 06:02:13;;;;;;;16.07;8.33;;;;;;;;;;5042963;28;20435;-59
2022/12/12 06:04:39;;;;;;;13.43;8.07;;;;;;;;;;5025144;28;20181;-58
2022/12/12 06:07:05;;;;;;;12.30;7.97;;;;;;;;;;5044570;28;20408;-59
2022/12/12 06:09:32;;;;;;;9.53;7.10;;;;;;;;;;5044254;28;20813;-60
2022/12/12 06:11:58;;;;;;;11.10;7.70;;;;;;;;;;5044463;28;20461;-58
2022/12/12 06:14:25;;;;;;;10.77;6.70;;;;;;;;;;5042118;28;20431;-59
2022/12/12 06:16:51;;;;;;;12.13;7.93;;;;;;;;;;5043290;28;20546;-59
2022/12/12 06:19:18;;;;;;;14.60;8.10;;;;;;;;;;5042633;28;20951;-58
2022/12/12 06:21:44;;;;;;;14.10;8.57;;;;;;;;;;5042503;28;20462;-58
2022/12/12 06:24:10;;;;;;;14.40;8.63;;;;;;;;;;5041949;28;21013;-58
2022/12/12 06:26:36;;;;;;;13.63;8.00;;;;;;;;;;5042102;28;20787;-59
2022/12/12 06:29:02;;;;;;;11.40;8.13;;;;;;;;;;5043807;28;20443;-59
2022/12/12 06:31:29;;;;;;;17.13;8.77;;;;;;;;;;5059069;28;20462;-58
2022/12/12 06:33:55;;;;;;;18.67;8.47;;;;;;;;;;5042791;28;20866;-59
2022/12/12 06:36:25;;;;;;;12.43;7.70;;;;;;;;;;5044152;28;20431;-58
2022/12/12 06:38:55;;;;;;;9.77;7.80;;;;;;;;;;5049370;28;20429;-59
2022/12/12 06:41:21;;;;;;;10.90;7.47;;;;;;;;;;5065587;28;20745;-58
2022/12/12 06:43:47;;;;;;;10.23;7.90;;;;;;;;;;5052628;28;20439;-58
2022/12/12 06:46:15;;;;;;;12.53;7.73;;;;;;;;;;5043217;28;20431;-59
2022/12/12 06:48:42;;;;;;;13.17;8.07;;;;;;;;;;5037941;28;20522;-59
2022/12/12 06:51:09;;;;;;;11.37;7.67;;;;;;;;;;5024724;28;20431;-59
2022/12/12 06:53:36;;;;;;;11.00;6.93;;;;;;;;;;5045233;28;20899;-58
2022/12/12 06:56:06;;;;;;;11.10;8.03;;;;;;;;;;5038269;28;20475;-59
2022/12/12 06:58:32;;;;;;;13.67;8.53;;;;;;;;;;5043578;28;20453;-58
2022/12/12 07:00:58;;;;;;;11.20;7.30;;;;;;;;;;5026512;28;20536;-62
2022/12/12 07:03:24;;;;;;;12.70;7.83;;;;;;;;;;5040293;28;20790;-58
2022/12/12 07:05:50;;;;;;;11.20;7.43;;;;;;;;;;5044038;28;20472;-58
2022/12/12 07:08:16;;;;;;;17.60;9.63;;;;;;;;;;5041952;28;20443;-59
2022/12/12 07:10:43;;;;;;;16.07;8.03;;;;;;;;;;5040648;28;20908;-59
2022/12/12 07:13:09;;;;;;;14.40;8.27;;;;;;;;;;5040328;28;20524;-59
2022/12/12 07:15:35;;;;;;;12.63;8.97;;;;;;;;;;5050203;28;20449;-59
2022/12/12 07:18:01;;;;;;;14.67;9.53;;;;;;;;;;5052681;28;20429;-59
2022/12/12 07:20:27;;;;;;;13.73;7.93;;;;;;;;;;5042660;28;20431;-59
2022/12/12 07:22:53;;;;;;;17.57;10.50;;;;;;;;;;5029038;28;20438;-59
2022/12/12 07:25:19;;;;;;;14.63;8.47;;;;;;;;;;5045663;28;20485;-59
2022/12/12 07:27:45;;;;;;;16.13;9.53;;;;;;;;;;5026248;28;20442;-58
2022/12/12 07:30:11;;;;;;;14.83;9.07;;;;;;;;;;5026837;28;20424;-58
2022/12/12 07:32:38;;;;;;;11.53;8.70;;;;;;;;;;5037837;28;20462;-59
2022/12/12 07:35:04;;;;;;;14.93;8.60;;;;;;;;;;5044984;28;20427;-58
2022/12/12 07:37:30;;;;;;;13.83;8.73;;;;;;;;;;5044244;28;20423;-59
2022/12/12 07:39:56;;;;;;;13.63;8.07;;;;;;;;;;5045199;28;20421;-58
2022/12/12 07:42:22;;;;;;;16.60;9.43;;;;;;;;;;5043653;28;20488;-58
2022/12/12 07:44:48;;;;;;;13.10;8.70;;;;;;;;;;5047047;28;20995;-59
2022/12/12 07:47:14;;;;;;;15.93;9.37;;;;;;;;;;5061183;28;20416;-59
2022/12/12 07:49:40;;;;;;;13.90;8.63;;;;;;;;;;5039293;28;20197;-58
2022/12/12 07:52:06;;;;;;;13.37;8.43;;;;;;;;;;5038878;28;21020;-59
2022/12/12 07:54:33;;;;;;;11.70;8.30;;;;;;;;;;5039575;27;20467;-59
2022/12/12 07:56:59;;;;;;;13.30;8.23;;;;;;;;;;5042121;28;20427;-59
2022/12/12 07:59:25;;;;;;;12.83;8.30;;;;;;;;;;5035313;28;20425;-59
2022/12/12 08:01:51;;;;;;;11.43;8.00;;;;;;;;;;5038767;28;20937;-58
2022/12/12 08:04:17;;;;;;;12.83;8.73;;;;;;;;;;5031547;28;20479;-59
2022/12/12 08:06:43;;;;;;;12.30;8.60;;;;;;;;;;5040570;28;20440;-59
2022/12/12 08:09:09;;;;;;;12.07;7.40;;;;;;;;;;5035646;28;20429;-58
2022/12/12 08:11:35;;;;;;;13.33;8.37;;;;;;;;;;5031104;28;20467;-59
2022/12/12 08:14:01;;;;;;;14.00;8.90;;;;;;;;;;5043012;28;20455;-59
2022/12/12 08:16:28;;;;;;;11.30;8.03;;;;;;;;;;5045054;28;20422;-58
2022/12/12 08:18:55;;;;;;;12.83;7.93;;;;;;;;;;5045584;28;20854;-58
2022/12/12 08:21:21;;;;;;;12.90;8.77;;;;;;;;;;5060307;28;20983;-58
2022/12/12 08:23:47;;;;;;;13.00;7.93;;;;;;;;;;5043997;28;20466;-59
2022/12/12 08:26:14;;;;;;;12.00;8.00;;;;;;;;;;5039235;28;20460;-58
2022/12/12 08:28:43;;;;;;;13.03;8.33;;;;;;;;;;5033909;28;20446;-59
2022/12/12 08:31:09;;;;;;;11.27;8.10;;;;;;;;;;5035540;28;20452;-59
2022/12/12 08:33:36;;;;;;;10.00;7.73;;;;;;;;;;5043381;28;20434;-58
2022/12/12 08:36:10;;;;;;;12.50;8.43;;;;;;;;;;5053839;28;20430;-59
2022/12/12 08:38:36;;;;;;;13.70;8.53;;;;;;;;;;5063163;28;20928;-59
2022/12/12 08:41:02;;;;;;;10.37;7.50;;;;;;;;;;5046632;28;20465;-58
2022/12/12 08:43:28;;;;;;;14.07;8.17;;;;;;;;;;5036025;28;20436;-58
2022/12/12 08:46:01;;;;;;;10.73;8.13;;;;;;;;;;5040352;28;20944;-59
2022/12/12 08:48:27;;;;;;;14.73;7.70;;;;;;;;;;5045870;28;21076;-59
2022/12/12 08:50:53;;;;;;;13.93;8.13;;;;;;;;;;5047133;28;20447;-58
2022/12/12 08:53:19;;;;;;;13.97;8.13;;;;;;;;;;5045944;28;20558;-58
2022/12/12 08:55:45;;;;;;;12.90;8.30;;;;;;;;;;5048428;28;20482;-59
2022/12/12 08:58:11;;;;;;;14.73;8.20;;;;;;;;;;5049801;28;20462;-59
2022/12/12 09:00:37;;;;;;;12.50;8.90;;;;;;;;;;5041726;28;20412;-59
2022/12/12 09:03:04;;;;;;;11.17;7.70;;;;;;;;;;5031756;28;20411;-59
2022/12/12 09:05:30;;;;;;;15.73;8.40;;;;;;;;;;5054772;28;20778;-59
2022/12/12 09:07:58;;;;;;;11.80;8.20;;;;;;;;;;5045604;28;20419;-59
2022/12/12 09:10:24;;;;;;;15.23;8.17;;;;;;;;;;5032714;28;20436;-59
2022/12/12 09:12:50;;;;;;;12.33;8.33;;;;;;;;;;5045388;28;20457;-59
2022/12/12 09:15:16;;;;;;;11.43;7.80;;;;;;;;;;5043739;28;20702;-58
2022/12/12 09:17:42;;;;;;;12.67;8.27;;;;;;;;;;5043730;28;20415;-59
2022/12/12 09:20:10;;;;;;;12.57;8.60;;;;;;;;;;5046106;28;20832;-59
2022/12/12 09:22:36;;;;;;;9.07;7.07;;;;;;;;;;5007584;28;20440;-59
2022/12/12 09:25:02;;;;;;;11.17;7.80;;;;;;;;;;5038695;28;20422;-59
2022/12/12 09:27:29;;;;;;;11.30;7.93;;;;;;;;;;5027059;28;20971;-59
2022/12/12 09:29:55;;;;;;;14.63;8.00;;;;;;;;;;5044043;28;20442;-58
2022/12/12 09:32:21;;;;;;;12.33;7.37;;;;;;;;;;5043205;28;20485;-60
2022/12/12 09:34:47;;;;;;;10.20;6.90;;;;;;;;;;5038478;28;20955;-59
2022/12/12 09:37:13;;;;;;;10.43;7.00;;;;;;;;;;5030615;28;20416;-59
2022/12/12 09:39:40;;;;;;;11.23;7.10;;;;;;;;;;5055071;28;20422;-59
2022/12/12 09:42:10;;;;;;;12.10;7.97;;;;;;;;;;5058398;28;21086;-59
2022/12/12 09:44:36;;;;;;;10.23;7.00;;;;;;;;;;5028268;28;20515;-60
2022/12/12 09:47:06;;;;;;;9.87;7.47;;;;;;;;;;5033103;28;20434;-60
2022/12/12 09:49:50;;;;;;;10.03;6.20;;;;;;;;;;5057959;28;20434;-60
2022/12/12 09:52:25;;;;;;;13.13;7.50;;;;;;;;;;5041028;28;20519;-60
2022/12/12 09:54:51;;;;;;;10.73;7.07;;;;;;;;;;5061813;28;20561;-59
2022/12/12 09:57:38;;;;;;;12.90;7.47;;;;;;;;;;5056927;28;20426;-60
2022/12/12 10:00:04;;;;;;;9.73;5.40;;;;;;;;;;5051108;28;20429;-58
2022/12/12 10:02:30;;;;;;;13.70;6.93;;;;;;;;;;5061273;28;20427;-59
2022/12/12 10:05:19;;;;;;;9.17;6.67;;;;;;;;;;5048429;28;20781;-59
2022/12/12 10:08:04;;;;;;;10.33;6.47;;;;;;;;;;5045243;28;20720;-59
2022/12/12 10:10:32;;;;;;;9.47;6.77;;;;;;;;;;5056651;28;20532;-58
2022/12/12 10:12:59;;;;;;;13.83;7.20;;;;;;;;;;5055895;28;20862;-59
2022/12/12 10:15:39;;;;;;;11.17;7.13;;;;;;;;;;5044308;28;20943;-60
2022/12/12 10:18:09;;;;;;;9.20;5.97;;;;;;;;;;5046422;28;20856;-59
2022/12/12 10:20:41;;;;;;;8.57;6.90;;;;;;;;;;5024341;28;20432;-60
2022/12/12 10:23:14;;;;;;;10.17;6.43;;;;;;;;;;5047307;28;20436;-59
2022/12/12 10:25:49;;;;;;;10.73;6.77;;;;;;;;;;5034983;28;20512;-60
2022/12/12 10:28:17;;;;;;;11.77;6.77;;;;;;;;;;5024842;28;20397;-60
2022/12/12 10:30:54;;;;;;;11.27;7.20;;;;;;;;;;5044210;28;20200;-59
2022/12/12 10:33:30;;;;;;;9.07;5.80;;;;;;;;;;5040661;28;20456;-60
2022/12/12 10:35:56;;;;;;;9.90;6.93;;;;;;;;;;5058272;28;20408;-59
2022/12/12 10:38:28;;;;;;;10.73;6.60;;;;;;;;;;5046627;28;20424;-59
2022/12/12 10:41:01;;;;;;;12.10;6.70;;;;;;;;;;5052497;28;20203;-60
2022/12/12 10:43:36;;;;;;;9.43;6.37;;;;;;;;;;5029964;28;20907;-60
2022/12/12 10:46:12;;;;;;;9.57;5.70;;;;;;;;;;5048805;28;20502;-59
2022/12/12 10:48:39;;;;;;;9.53;6.50;;;;;;;;;;5026647;28;20477;-59
2022/12/12 10:51:13;;;;;;;9.83;6.67;;;;;;;;;;5042741;28;20716;-61
2022/12/12 10:53:40;;;;;;;9.30;6.33;;;;;;;;;;5042702;28;20419;-58
2022/12/12 10:56:09;;;;;;;10.97;6.47;;;;;;;;;;5051200;27;20553;-59
2022/12/12 10:58:36;;;;;;;10.90;6.90;;;;;;;;;;5041722;28;20649;-60
2022/12/12 11:01:04;;;;;;;11.20;7.73;;;;;;;;;;5049529;28;20992;-59
2022/12/12 11:04:03;;;;;;;11.63;6.33;;;;;;;;;;5030497;28;20762;-59
2022/12/12 11:06:29;;;;;;;12.03;6.87;;;;;;;;;;5010272;28;20772;-59
2022/12/12 11:09:09;;;;;;;9.20;6.03;;;;;;;;;;5047732;28;20408;-59
2022/12/12 11:11:35;;;;;;;9.33;7.57;;;;;;;;;;5010231;28;20537;-59
2022/12/12 11:14:02;;;;;;;8.53;6.10;;;;;;;;;;5044198;28;20451;-59
2022/12/12 11:16:30;;;;;;;10.17;6.03;;;;;;;;;;5045686;28;20932;-60
2022/12/12 11:19:01;;;;;;;11.17;7.27;;;;;;;;;;5043818;28;20569;-59
2022/12/12 11:21:27;;;;;;;12.07;7.07;;;;;;;;;;5049032;28;20787;-59
2022/12/12 11:23:54;;;;;;;12.33;6.53;;;;;;;;;;5056532;28;20423;-59
2022/12/12 11:26:21;;;;;;;11.10;6.60;;;;;;;;;;5027310;28;20423;-59
2022/12/12 11:28:53;;;;;;;7.43;5.80;;;;;;;;;;5028128;28;20396;-59
2022/12/12 11:31:21;;;;;;;10.07;6.63;;;;;;;;;;5027512;28;20424;-60
2022/12/12 11:33:55;;;;;;;9.53;6.60;;;;;;;;;;5036178;28;20412;-59
2022/12/12 11:36:23;;;;;;;10.30;6.67;;;;;;;;;;5047156;28;20522;-59
2022/12/12 11:38:52;;;;;;;11.13;6.63;;;;;;;;;;5048245;28;20396;-59
2022/12/12 11:41:18;;;;;;;9.77;6.93;;;;;;;;;;5047572;28;20457;-59
2022/12/12 11:43:47;;;;;;;7.67;6.10;;;;;;;;;;5047210;28;20491;-58
2022/12/12 11:46:13;;;;;;;7.83;5.80;;;;;;;;;;5047273;28;20392;-60
2022/12/12 11:48:42;;;;;;;10.47;7.63;;;;;;;;;;5047278;28;20391;-59
2022/12/12 11:51:09;;;;;;;11.67;7.53;;;;;;;;;;5046212;28;20632;-59
2022/12/12 11:53:44;;;;;;;9.60;6.33;;;;;;;;;;5046543;28;20432;-59
2022/12/12 11:56:24;;;;;;;7.80;5.80;;;;;;;;;;5048274;28;20872;-59
2022/12/12 11:59:14;;;;;;;9.40;6.77;;;;;;;;;;5047408;28;20442;-60
2022/12/12 12:01:55;;;;;;;11.13;7.33;;;;;;;;;;5000804;28;20414;-59
2022/12/12 12:04:24;;;;;;;11.83;6.10;;;;;;;;;;5045551;28;20454;-59
2022/12/12 12:06:53;;;;;;;11.20;7.30;;;;;;;;;;5026808;28;20765;-59
2022/12/12 12:09:25;;;;;;;14.70;7.57;;;;;;;;;;5046234;28;20898;-59
2022/12/12 12:11:51;;;;;;;9.67;6.50;;;;;;;;;;5049924;28;21178;-59
2022/12/12 12:14:26;;;;;;;10.73;6.67;;;;;;;;;;5050969;28;20931;-60
2022/12/12 12:17:09;;;;;;;9.90;7.40;;;;;;;;;;5050005;28;20415;-59
2022/12/12 12:19:38;;;;;;;12.63;6.83;;;;;;;;;;5036441;28;20513;-59
2022/12/12 12:22:14;;;;;;;13.20;7.53;;;;;;;;;;5037338;28;20685;-59
2022/12/12 12:24:43;;;;;;;9.20;6.23;;;;;;;;;;5038474;28;20425;-60
2022/12/12 12:27:24;;;;;;;9.37;6.63;;;;;;;;;;5040139;28;20192;-58
2022/12/12 12:30:03;;;;;;;10.87;6.30;;;;;;;;;;5038650;28;20421;-59
2022/12/12 12:32:47;;;;;;;10.27;6.50;;;;;;;;;;5033853;28;20201;-59
2022/12/12 12:35:22;;;;;;;10.63;6.50;;;;;;;;;;5040248;28;20442;-59
2022/12/12 12:38:07;;;;;;;8.73;6.70;;;;;;;;;;5030065;28;20952;-60
2022/12/12 12:40:40;;;;;;;10.90;6.83;;;;;;;;;;5040468;28;20910;-60
2022/12/12 12:43:15;;;;;;;11.80;7.17;;;;;;;;;;5023296;28;20424;-60
2022/12/12 12:45:58;;;;;;;9.37;6.50;;;;;;;;;;5042350;28;20185;-59
2022/12/12 12:48:34;;;;;;;11.53;6.87;;;;;;;;;;5048632;28;20180;-60
2022/12/12 12:51:09;;;;;;;11.50;6.80;;;;;;;;;;5041923;28;20435;-60
2022/12/12 12:53:41;;;;;;;11.80;7.33;;;;;;;;;;5042727;28;20671;-59
2022/12/12 12:56:33;;;;;;;12.30;6.57;;;;;;;;;;5030045;28;20727;-60
2022/12/12 12:59:05;;;;;;;10.80;6.63;;;;;;;;;;5028573;28;20439;-60
2022/12/12 13:01:38;;;;;;;10.37;7.07;;;;;;;;;;5033374;28;20177;-61
2022/12/12 13:04:08;;;;;;;10.60;6.50;;;;;;;;;;5044764;28;20407;-61
2022/12/12 13:06:43;;;;;;;10.10;6.80;;;;;;;;;;5042360;28;20838;-60
2022/12/12 13:09:15;;;;;;;10.07;7.10;;;;;;;;;;5036286;28;20702;-61
2022/12/12 13:11:43;;;;;;;10.70;6.37;;;;;;;;;;5044523;28;20667;-61
2022/12/12 13:14:15;;;;;;;9.33;5.93;;;;;;;;;;5026469;28;20181;-60
2022/12/12 13:16:42;;;;;;;11.83;6.00;;;;;;;;;;5031665;28;20255;-61
2022/12/12 13:19:10;;;;;;;7.57;5.83;;;;;;;;;;5041607;28;20281;-60
2022/12/12 13:21:52;;;;;;;7.93;5.93;;;;;;;;;;5037628;28;20243;-60
2022/12/12 13:24:32;;;;;;;11.33;6.73;;;;;;;;;;5041423;28;20185;-60
2022/12/12 13:27:11;;;;;;;11.07;6.23;;;;;;;;;;5029453;28;20177;-60
2022/12/12 13:29:48;;;;;;;9.10;5.83;;;;;;;;;;5044321;28;20183;-59
2022/12/12 13:32:14;;;;;;;8.97;5.37;;;;;;;;;;5047615;28;20265;-60
2022/12/12 13:34:46;;;;;;;8.37;5.53;;;;;;;;;;5035707;28;20446;-60
2022/12/12 13:37:16;;;;;;;8.90;6.43;;;;;;;;;;5038431;28;20327;-61
2022/12/12 13:39:43;;;;;;;7.53;5.00;;;;;;;;;;5048925;28;20536;-60
2022/12/12 13:42:10;;;;;;;9.37;6.43;;;;;;;;;;5040529;28;20180;-61
2022/12/12 13:44:39;;;;;;;7.67;5.30;;;;;;;;;;5038950;28;20254;-60
2022/12/12 13:47:14;;;;;;;10.77;6.33;;;;;;;;;;5038890;28;20540;-60
2022/12/12 13:49:44;;;;;;;6.23;5.10;;;;;;;;;;5031929;28;20177;-61
2022/12/12 13:52:21;;;;;;;7.63;5.77;;;;;;;;;;5037216;28;20256;-60
2022/12/12 13:54:48;;;;;;;8.20;5.93;;;;;;;;;;5045890;28;20180;-60
2022/12/12 13:57:21;;;;;;;6.70;4.97;;;;;;;;;;5040221;28;20539;-61
2022/12/12 14:00:07;;;;;;;8.87;5.17;;;;;;;;;;5025467;28;20458;-61
2022/12/12 14:02:35;;;;;;;8.97;6.13;;;;;;;;;;5041340;28;20688;-60
2022/12/12 14:05:27;;;;;;;9.87;5.87;;;;;;;;;;5034652;28;20721;-60
2022/12/12 14:08:03;;;;;;;8.50;5.50;;;;;;;;;;5035999;28;20227;-60
2022/12/12 14:10:35;;;;;;;8.33;5.40;;;;;;;;;;5043983;28;20212;-59
2022/12/12 14:13:19;;;;;;;8.90;5.37;;;;;;;;;;5042059;28;20212;-60
2022/12/12 14:15:46;;;;;;;8.80;5.60;;;;;;;;;;5041414;28;20184;-60
2022/12/12 14:18:20;;;;;;;8.03;4.77;;;;;;;;;;5037804;28;20423;-60
2022/12/12 14:20:53;;;;;;;8.27;5.47;;;;;;;;;;5030048;28;20420;-60
2022/12/12 14:23:23;;;;;;;7.37;5.23;;;;;;;;;;5034647;28;21149;-61
2022/12/12 14:25:49;;;;;;;10.13;5.20;;;;;;;;;;5043153;28;21039;-60
2022/12/12 14:28:22;;;;;;;8.87;5.63;;;;;;;;;;5047550;28;20510;-60
2022/12/12 14:30:51;;;;;;;7.80;4.50;;;;;;;;;;5041777;28;20461;-61
2022/12/12 14:33:29;;;;;;;6.77;4.83;;;;;;;;;;5036986;28;20208;-60
2022/12/12 14:36:04;;;;;;;9.30;6.17;;;;;;;;;;5043291;28;20177;-60
2022/12/12 14:38:49;;;;;;;10.90;5.47;;;;;;;;;;5029701;28;20632;-60
2022/12/12 14:41:17;;;;;;;6.97;4.80;;;;;;;;;;5044503;28;20425;-61
2022/12/12 14:43:49;;;;;;;12.10;6.20;;;;;;;;;;5046451;28;20436;-61
2022/12/12 14:46:16;;;;;;;12.13;5.90;;;;;;;;;;5043151;28;20656;-60
2022/12/12 14:48:45;;;;;;;8.20;5.43;;;;;;;;;;5048051;28;20165;-60
2022/12/12 14:51:28;;;;;;;7.40;5.07;;;;;;;;;;5046627;28;20465;-59
2022/12/12 14:53:55;;;;;;;9.37;5.17;;;;;;;;;;5042902;28;20675;-60
2022/12/12 14:56:24;;;;;;;9.17;5.80;;;;;;;;;;5047499;28;20793;-60
2022/12/12 14:58:58;;;;;;;7.77;5.43;;;;;;;;;;5033922;28;20442;-60
2022/12/12 15:01:34;;;;;;;9.07;5.37;;;;;;;;;;5039135;28;20638;-60
2022/12/12 15:04:06;;;;;;;7.50;5.20;;;;;;;;;;5046036;28;20193;-60
2022/12/12 15:06:34;;;;;;;8.63;6.00;;;;;;;;;;5043408;28;20272;-60
2022/12/12 15:09:28;;;;;;;8.47;5.67;;;;;;;;;;5042068;28;20423;-60
2022/12/12 15:11:55;;;;;;;10.97;5.90;;;;;;;;;;5020952;28;20668;-60